sensor_id;sensor_type;location;lat;lon;timestamp;P1;durP1;ratioP1;P2;durP2;ratioP2
46006;SDS011;31738;50.188;8.524;2023-07-31T00:02:16;5.40;;;2.40;;
46006;SDS011;31738;50.188;8.524;2023-07-31T00:04:41;9.00;;;2.35;;
46006;SDS011;31738;50.188;8.524;2023-07-31T00:07:07;3.72;;;2.28;;
46006;SDS011;31738;50.188;8.524;2023-07-31T00:09:32;7.05;;;2.83;;
46006;SDS011;31738;50.188;8.524;2023-07-31T00:11:58;6.43;;;2.30;;
46006;SDS011;31738;50.188;8.524;2023-07-31T00:14:24;6.43;;;2.45;;
46006;SDS011;31738;50.188;8.524;2023-07-31T00:16:49;6.53;;;2.60;;
46006;SDS011;31738;50.188;8.524;2023-07-31T00:19:15;5.60;;;2.53;;
46006;SDS011;31738;50.188;8.524;2023-07-31T00:21:40;7.95;;;2.67;;
46006;SDS011;31738;50.188;8.524;2023-07-31T00:24:06;10.75;;;2.80;;
46006;SDS011;31738;50.188;8.524;2023-07-31T00:26:31;4.88;;;2.67;;
46006;SDS011;31738;50.188;8.524;2023-07-31T00:28:57;7.55;;;2.90;;
46006;SDS011;31738;50.188;8.524;2023-07-31T00:31:23;6.45;;;2.90;;
46006;SDS011;31738;50.188;8.524;2023-07-31T00:33:48;5.97;;;2.83;;
46006;SDS011;31738;50.188;8.524;2023-07-31T00:36:14;7.22;;;2.63;;
46006;SDS011;31738;50.188;8.524;2023-07-31T00:38:39;5.57;;;2.35;;
46006;SDS011;31738;50.188;8.524;2023-07-31T00:41:05;6.40;;;2.78;;
46006;SDS011;31738;50.188;8.524;2023-07-31T00:43:31;6.60;;;2.40;;
46006;SDS011;31738;50.188;8.524;2023-07-31T00:45:56;7.82;;;2.78;;
46006;SDS011;31738;50.188;8.524;2023-07-31T00:48:22;9.60;;;3.38;;
46006;SDS011;31738;50.188;8.524;2023-07-31T00:50:48;6.03;;;2.40;;
46006;SDS011;31738;50.188;8.524;2023-07-31T00:53:14;9.52;;;2.95;;
46006;SDS011;31738;50.188;8.524;2023-07-31T00:55:39;11.25;;;3.17;;
46006;SDS011;31738;50.188;8.524;2023-07-31T00:58:05;10.45;;;3.30;;
46006;SDS011;31738;50.188;8.524;2023-07-31T01:00:30;10.25;;;3.08;;
46006;SDS011;31738;50.188;8.524;2023-07-31T01:02:56;8.95;;;3.17;;
46006;SDS011;31738;50.188;8.524;2023-07-31T01:05:28;6.35;;;2.70;;
46006;SDS011;31738;50.188;8.524;2023-07-31T01:11:25;6.90;;;2.92;;
46006;SDS011;31738;50.188;8.524;2023-07-31T01:13:57;9.68;;;3.45;;
46006;SDS011;31738;50.188;8.524;2023-07-31T01:16:23;8.20;;;3.03;;
46006;SDS011;31738;50.188;8.524;2023-07-31T01:18:48;6.88;;;2.92;;
46006;SDS011;31738;50.188;8.524;2023-07-31T01:23:51;10.32;;;3.17;;
46006;SDS011;31738;50.188;8.524;2023-07-31T01:26:30;8.15;;;2.90;;
46006;SDS011;31738;50.188;8.524;2023-07-31T01:31:40;8.18;;;3.25;;
46006;SDS011;31738;50.188;8.524;2023-07-31T01:34:07;8.48;;;3.53;;
46006;SDS011;31738;50.188;8.524;2023-07-31T01:36:35;10.07;;;3.30;;
46006;SDS011;31738;50.188;8.524;2023-07-31T01:39:01;6.13;;;3.03;;
46006;SDS011;31738;50.188;8.524;2023-07-31T01:41:27;9.10;;;3.40;;
46006;SDS011;31738;50.188;8.524;2023-07-31T01:43:53;5.90;;;3.35;;
46006;SDS011;31738;50.188;8.524;2023-07-31T01:46:18;9.65;;;3.47;;
46006;SDS011;31738;50.188;8.524;2023-07-31T01:48:44;6.22;;;2.60;;
46006;SDS011;31738;50.188;8.524;2023-07-31T01:51:09;6.78;;;3.05;;
46006;SDS011;31738;50.188;8.524;2023-07-31T01:53:35;9.10;;;3.30;;
46006;SDS011;31738;50.188;8.524;2023-07-31T01:56:00;6.72;;;3.20;;
46006;SDS011;31738;50.188;8.524;2023-07-31T01:58:26;8.48;;;3.40;;
46006;SDS011;31738;50.188;8.524;2023-07-31T02:00:51;8.05;;;3.20;;
46006;SDS011;31738;50.188;8.524;2023-07-31T02:03:17;9.25;;;3.00;;
46006;SDS011;31738;50.188;8.524;2023-07-31T02:05:46;7.75;;;3.22;;
46006;SDS011;31738;50.188;8.524;2023-07-31T02:08:12;6.32;;;3.63;;
46006;SDS011;31738;50.188;8.524;2023-07-31T02:13:40;5.20;;;2.72;;
46006;SDS011;31738;50.188;8.524;2023-07-31T02:16:06;7.65;;;3.58;;
46006;SDS011;31738;50.188;8.524;2023-07-31T02:18:32;6.90;;;3.20;;
46006;SDS011;31738;50.188;8.524;2023-07-31T02:20:57;9.30;;;3.03;;
46006;SDS011;31738;50.188;8.524;2023-07-31T02:23:24;9.43;;;2.97;;
46006;SDS011;31738;50.188;8.524;2023-07-31T02:25:50;7.93;;;3.20;;
46006;SDS011;31738;50.188;8.524;2023-07-31T02:28:15;6.22;;;3.30;;
46006;SDS011;31738;50.188;8.524;2023-07-31T02:30:43;5.93;;;3.33;;
46006;SDS011;31738;50.188;8.524;2023-07-31T02:33:10;7.65;;;3.13;;
46006;SDS011;31738;50.188;8.524;2023-07-31T02:35:36;7.15;;;3.20;;
46006;SDS011;31738;50.188;8.524;2023-07-31T02:38:01;10.85;;;3.33;;
46006;SDS011;31738;50.188;8.524;2023-07-31T02:40:26;7.53;;;3.58;;
46006;SDS011;31738;50.188;8.524;2023-07-31T02:42:52;6.95;;;3.17;;
46006;SDS011;31738;50.188;8.524;2023-07-31T02:45:18;6.68;;;3.58;;
46006;SDS011;31738;50.188;8.524;2023-07-31T02:47:43;8.95;;;2.90;;
46006;SDS011;31738;50.188;8.524;2023-07-31T02:50:09;9.77;;;3.70;;
46006;SDS011;31738;50.188;8.524;2023-07-31T02:52:34;6.00;;;3.28;;
46006;SDS011;31738;50.188;8.524;2023-07-31T02:55:00;11.02;;;3.47;;
46006;SDS011;31738;50.188;8.524;2023-07-31T02:57:25;7.80;;;3.08;;
46006;SDS011;31738;50.188;8.524;2023-07-31T02:59:51;8.02;;;3.47;;
46006;SDS011;31738;50.188;8.524;2023-07-31T03:02:16;5.15;;;3.03;;
46006;SDS011;31738;50.188;8.524;2023-07-31T03:04:41;7.57;;;3.30;;
46006;SDS011;31738;50.188;8.524;2023-07-31T03:07:07;6.60;;;3.85;;
46006;SDS011;31738;50.188;8.524;2023-07-31T03:09:32;12.05;;;3.65;;
46006;SDS011;31738;50.188;8.524;2023-07-31T03:11:58;5.35;;;3.25;;
46006;SDS011;31738;50.188;8.524;2023-07-31T03:14:23;11.25;;;3.75;;
46006;SDS011;31738;50.188;8.524;2023-07-31T03:16:51;8.15;;;3.40;;
46006;SDS011;31738;50.188;8.524;2023-07-31T03:19:16;6.03;;;3.25;;
46006;SDS011;31738;50.188;8.524;2023-07-31T03:21:42;7.78;;;3.20;;
46006;SDS011;31738;50.188;8.524;2023-07-31T03:24:07;11.57;;;3.30;;
46006;SDS011;31738;50.188;8.524;2023-07-31T03:26:33;8.27;;;3.20;;
46006;SDS011;31738;50.188;8.524;2023-07-31T03:28:58;10.98;;;3.45;;
46006;SDS011;31738;50.188;8.524;2023-07-31T03:31:24;9.30;;;3.40;;
46006;SDS011;31738;50.188;8.524;2023-07-31T03:33:49;6.53;;;3.38;;
46006;SDS011;31738;50.188;8.524;2023-07-31T03:36:15;12.40;;;3.65;;
46006;SDS011;31738;50.188;8.524;2023-07-31T03:38:40;11.77;;;3.90;;
46006;SDS011;31738;50.188;8.524;2023-07-31T03:41:06;8.48;;;3.33;;
46006;SDS011;31738;50.188;8.524;2023-07-31T03:43:32;7.90;;;3.42;;
46006;SDS011;31738;50.188;8.524;2023-07-31T03:46:00;7.78;;;3.70;;
46006;SDS011;31738;50.188;8.524;2023-07-31T03:48:26;9.07;;;3.70;;
46006;SDS011;31738;50.188;8.524;2023-07-31T03:50:52;7.90;;;3.50;;
46006;SDS011;31738;50.188;8.524;2023-07-31T03:53:17;9.25;;;3.33;;
46006;SDS011;31738;50.188;8.524;2023-07-31T03:55:42;10.73;;;3.25;;
46006;SDS011;31738;50.188;8.524;2023-07-31T03:58:08;12.38;;;3.60;;
46006;SDS011;31738;50.188;8.524;2023-07-31T04:00:33;10.63;;;3.20;;
46006;SDS011;31738;50.188;8.524;2023-07-31T04:02:59;8.13;;;3.50;;
46006;SDS011;31738;50.188;8.524;2023-07-31T04:05:24;6.18;;;3.22;;
46006;SDS011;31738;50.188;8.524;2023-07-31T04:07:50;7.10;;;2.75;;
46006;SDS011;31738;50.188;8.524;2023-07-31T04:10:15;7.78;;;3.50;;
46006;SDS011;31738;50.188;8.524;2023-07-31T04:12:41;9.68;;;3.67;;
46006;SDS011;31738;50.188;8.524;2023-07-31T04:15:06;9.57;;;3.75;;
46006;SDS011;31738;50.188;8.524;2023-07-31T04:17:32;7.78;;;3.00;;
46006;SDS011;31738;50.188;8.524;2023-07-31T04:19:57;5.18;;;3.03;;
46006;SDS011;31738;50.188;8.524;2023-07-31T04:22:23;8.02;;;3.15;;
46006;SDS011;31738;50.188;8.524;2023-07-31T04:24:48;9.98;;;3.15;;
46006;SDS011;31738;50.188;8.524;2023-07-31T04:27:14;6.53;;;3.30;;
46006;SDS011;31738;50.188;8.524;2023-07-31T04:29:39;8.93;;;3.30;;
46006;SDS011;31738;50.188;8.524;2023-07-31T04:32:07;11.45;;;3.38;;
46006;SDS011;31738;50.188;8.524;2023-07-31T04:34:33;7.60;;;3.22;;
46006;SDS011;31738;50.188;8.524;2023-07-31T04:36:59;7.85;;;3.08;;
46006;SDS011;31738;50.188;8.524;2023-07-31T04:39:24;7.85;;;3.08;;
46006;SDS011;31738;50.188;8.524;2023-07-31T04:41:50;9.48;;;2.78;;
46006;SDS011;31738;50.188;8.524;2023-07-31T04:44:15;8.02;;;3.17;;
46006;SDS011;31738;50.188;8.524;2023-07-31T04:46:40;6.90;;;3.20;;
46006;SDS011;31738;50.188;8.524;2023-07-31T04:49:06;7.88;;;3.33;;
46006;SDS011;31738;50.188;8.524;2023-07-31T04:51:32;7.95;;;3.38;;
46006;SDS011;31738;50.188;8.524;2023-07-31T04:53:57;10.30;;;3.67;;
46006;SDS011;31738;50.188;8.524;2023-07-31T04:56:22;10.65;;;3.63;;
46006;SDS011;31738;50.188;8.524;2023-07-31T04:58:48;9.13;;;3.58;;
46006;SDS011;31738;50.188;8.524;2023-07-31T05:01:13;9.18;;;3.58;;
46006;SDS011;31738;50.188;8.524;2023-07-31T05:03:39;6.68;;;3.85;;
46006;SDS011;31738;50.188;8.524;2023-07-31T05:06:04;6.35;;;3.30;;
46006;SDS011;31738;50.188;8.524;2023-07-31T05:08:30;6.40;;;3.38;;
46006;SDS011;31738;50.188;8.524;2023-07-31T05:10:55;12.00;;;4.07;;
46006;SDS011;31738;50.188;8.524;2023-07-31T05:13:20;8.77;;;3.55;;
46006;SDS011;31738;50.188;8.524;2023-07-31T05:15:46;9.93;;;3.63;;
46006;SDS011;31738;50.188;8.524;2023-07-31T05:18:11;9.85;;;3.60;;
46006;SDS011;31738;50.188;8.524;2023-07-31T05:20:37;6.60;;;3.58;;
46006;SDS011;31738;50.188;8.524;2023-07-31T05:23:02;6.97;;;3.72;;
46006;SDS011;31738;50.188;8.524;2023-07-31T05:25:28;9.23;;;3.40;;
46006;SDS011;31738;50.188;8.524;2023-07-31T05:27:53;9.65;;;3.80;;
46006;SDS011;31738;50.188;8.524;2023-07-31T05:30:19;9.93;;;3.95;;
46006;SDS011;31738;50.188;8.524;2023-07-31T05:32:44;7.68;;;3.70;;
46006;SDS011;31738;50.188;8.524;2023-07-31T05:35:10;11.23;;;4.00;;
46006;SDS011;31738;50.188;8.524;2023-07-31T05:37:35;11.07;;;3.75;;
46006;SDS011;31738;50.188;8.524;2023-07-31T05:40:01;10.43;;;4.18;;
46006;SDS011;31738;50.188;8.524;2023-07-31T05:42:26;10.90;;;4.07;;
46006;SDS011;31738;50.188;8.524;2023-07-31T05:44:52;10.13;;;3.30;;
46006;SDS011;31738;50.188;8.524;2023-07-31T05:47:17;11.75;;;4.07;;
46006;SDS011;31738;50.188;8.524;2023-07-31T05:49:43;7.80;;;3.70;;
46006;SDS011;31738;50.188;8.524;2023-07-31T05:52:09;11.55;;;3.80;;
46006;SDS011;31738;50.188;8.524;2023-07-31T05:54:34;9.88;;;3.47;;
46006;SDS011;31738;50.188;8.524;2023-07-31T05:57:00;11.85;;;3.63;;
46006;SDS011;31738;50.188;8.524;2023-07-31T05:59:25;13.55;;;3.88;;
46006;SDS011;31738;50.188;8.524;2023-07-31T06:01:51;8.98;;;3.50;;
46006;SDS011;31738;50.188;8.524;2023-07-31T06:04:16;10.23;;;4.15;;
46006;SDS011;31738;50.188;8.524;2023-07-31T06:06:42;10.25;;;3.65;;
46006;SDS011;31738;50.188;8.524;2023-07-31T06:09:07;11.90;;;3.70;;
46006;SDS011;31738;50.188;8.524;2023-07-31T06:11:33;10.20;;;3.55;;
46006;SDS011;31738;50.188;8.524;2023-07-31T06:13:58;7.80;;;3.83;;
46006;SDS011;31738;50.188;8.524;2023-07-31T06:16:24;9.38;;;4.07;;
46006;SDS011;31738;50.188;8.524;2023-07-31T06:18:50;10.43;;;3.13;;
46006;SDS011;31738;50.188;8.524;2023-07-31T06:21:16;14.05;;;4.00;;
46006;SDS011;31738;50.188;8.524;2023-07-31T06:23:42;10.98;;;4.47;;
46006;SDS011;31738;50.188;8.524;2023-07-31T06:26:08;12.43;;;4.20;;
46006;SDS011;31738;50.188;8.524;2023-07-31T06:28:33;9.85;;;3.20;;
46006;SDS011;31738;50.188;8.524;2023-07-31T06:30:58;9.38;;;4.00;;
46006;SDS011;31738;50.188;8.524;2023-07-31T06:33:24;11.32;;;3.92;;
46006;SDS011;31738;50.188;8.524;2023-07-31T06:35:50;13.35;;;3.92;;
46006;SDS011;31738;50.188;8.524;2023-07-31T06:38:15;13.95;;;4.80;;
46006;SDS011;31738;50.188;8.524;2023-07-31T06:40:41;14.00;;;4.00;;
46006;SDS011;31738;50.188;8.524;2023-07-31T06:43:06;11.30;;;4.00;;
46006;SDS011;31738;50.188;8.524;2023-07-31T06:45:35;14.93;;;3.88;;
46006;SDS011;31738;50.188;8.524;2023-07-31T06:48:01;12.15;;;3.75;;
46006;SDS011;31738;50.188;8.524;2023-07-31T06:50:30;8.27;;;3.75;;
46006;SDS011;31738;50.188;8.524;2023-07-31T06:52:56;12.55;;;4.18;;
46006;SDS011;31738;50.188;8.524;2023-07-31T06:55:22;10.85;;;3.75;;
46006;SDS011;31738;50.188;8.524;2023-07-31T06:57:48;12.13;;;3.90;;
46006;SDS011;31738;50.188;8.524;2023-07-31T07:00:15;13.30;;;4.00;;
46006;SDS011;31738;50.188;8.524;2023-07-31T07:02:41;13.35;;;3.22;;
46006;SDS011;31738;50.188;8.524;2023-07-31T07:05:07;16.55;;;4.75;;
46006;SDS011;31738;50.188;8.524;2023-07-31T07:07:33;8.90;;;3.92;;
46006;SDS011;31738;50.188;8.524;2023-07-31T07:09:59;7.55;;;3.45;;
46006;SDS011;31738;50.188;8.524;2023-07-31T07:12:25;10.65;;;4.10;;
46006;SDS011;31738;50.188;8.524;2023-07-31T07:14:51;10.88;;;4.00;;
46006;SDS011;31738;50.188;8.524;2023-07-31T07:17:18;11.63;;;4.20;;
46006;SDS011;31738;50.188;8.524;2023-07-31T07:19:44;12.13;;;4.30;;
46006;SDS011;31738;50.188;8.524;2023-07-31T07:22:11;9.75;;;3.65;;
46006;SDS011;31738;50.188;8.524;2023-07-31T07:24:37;11.35;;;3.83;;
46006;SDS011;31738;50.188;8.524;2023-07-31T07:27:03;11.60;;;3.63;;
46006;SDS011;31738;50.188;8.524;2023-07-31T07:29:28;8.45;;;3.45;;
46006;SDS011;31738;50.188;8.524;2023-07-31T07:31:54;12.15;;;3.60;;
46006;SDS011;31738;50.188;8.524;2023-07-31T07:34:19;10.02;;;3.80;;
46006;SDS011;31738;50.188;8.524;2023-07-31T07:36:44;8.00;;;3.72;;
46006;SDS011;31738;50.188;8.524;2023-07-31T07:39:10;9.82;;;4.15;;
46006;SDS011;31738;50.188;8.524;2023-07-31T07:41:36;12.00;;;4.10;;
46006;SDS011;31738;50.188;8.524;2023-07-31T07:44:01;9.73;;;4.00;;
46006;SDS011;31738;50.188;8.524;2023-07-31T07:46:27;10.57;;;3.53;;
46006;SDS011;31738;50.188;8.524;2023-07-31T07:48:53;10.45;;;3.33;;
46006;SDS011;31738;50.188;8.524;2023-07-31T07:51:18;12.05;;;3.92;;
46006;SDS011;31738;50.188;8.524;2023-07-31T07:53:44;10.32;;;3.88;;
46006;SDS011;31738;50.188;8.524;2023-07-31T07:56:09;9.57;;;3.75;;
46006;SDS011;31738;50.188;8.524;2023-07-31T07:58:35;9.68;;;3.55;;
46006;SDS011;31738;50.188;8.524;2023-07-31T08:01:00;11.23;;;3.80;;
46006;SDS011;31738;50.188;8.524;2023-07-31T08:03:25;14.05;;;4.00;;
46006;SDS011;31738;50.188;8.524;2023-07-31T08:05:51;11.63;;;4.40;;
46006;SDS011;31738;50.188;8.524;2023-07-31T08:08:16;11.38;;;3.67;;
46006;SDS011;31738;50.188;8.524;2023-07-31T08:10:42;11.43;;;4.00;;
46006;SDS011;31738;50.188;8.524;2023-07-31T08:13:09;11.80;;;3.63;;
46006;SDS011;31738;50.188;8.524;2023-07-31T08:15:36;10.88;;;4.10;;
46006;SDS011;31738;50.188;8.524;2023-07-31T08:18:01;8.88;;;3.67;;
46006;SDS011;31738;50.188;8.524;2023-07-31T08:20:27;11.88;;;3.78;;
46006;SDS011;31738;50.188;8.524;2023-07-31T08:22:52;11.55;;;3.60;;
46006;SDS011;31738;50.188;8.524;2023-07-31T08:25:18;10.70;;;3.80;;
46006;SDS011;31738;50.188;8.524;2023-07-31T08:27:44;10.50;;;3.65;;
46006;SDS011;31738;50.188;8.524;2023-07-31T08:30:10;9.57;;;3.75;;
46006;SDS011;31738;50.188;8.524;2023-07-31T08:32:36;11.95;;;3.67;;
46006;SDS011;31738;50.188;8.524;2023-07-31T08:35:02;7.75;;;3.70;;
46006;SDS011;31738;50.188;8.524;2023-07-31T08:37:28;10.05;;;3.70;;
46006;SDS011;31738;50.188;8.524;2023-07-31T08:39:53;11.90;;;4.18;;
46006;SDS011;31738;50.188;8.524;2023-07-31T08:42:20;9.30;;;3.67;;
46006;SDS011;31738;50.188;8.524;2023-07-31T08:44:45;5.50;;;3.13;;
46006;SDS011;31738;50.188;8.524;2023-07-31T08:47:11;8.85;;;3.65;;
46006;SDS011;31738;50.188;8.524;2023-07-31T08:49:38;8.73;;;3.70;;
46006;SDS011;31738;50.188;8.524;2023-07-31T08:52:05;9.43;;;3.58;;
46006;SDS011;31738;50.188;8.524;2023-07-31T08:54:31;8.48;;;3.90;;
46006;SDS011;31738;50.188;8.524;2023-07-31T08:56:58;8.82;;;3.33;;
46006;SDS011;31738;50.188;8.524;2023-07-31T08:59:25;10.52;;;3.70;;
46006;SDS011;31738;50.188;8.524;2023-07-31T09:01:54;11.65;;;3.40;;
46006;SDS011;31738;50.188;8.524;2023-07-31T09:04:22;10.88;;;4.13;;
46006;SDS011;31738;50.188;8.524;2023-07-31T09:06:48;10.27;;;3.40;;
46006;SDS011;31738;50.188;8.524;2023-07-31T09:09:14;13.15;;;4.07;;
46006;SDS011;31738;50.188;8.524;2023-07-31T09:11:40;11.30;;;3.03;;
46006;SDS011;31738;50.188;8.524;2023-07-31T09:14:05;8.80;;;3.40;;
46006;SDS011;31738;50.188;8.524;2023-07-31T09:16:34;6.32;;;3.15;;
46006;SDS011;31738;50.188;8.524;2023-07-31T09:19:00;8.05;;;3.30;;
46006;SDS011;31738;50.188;8.524;2023-07-31T09:21:27;12.80;;;3.60;;
46006;SDS011;31738;50.188;8.524;2023-07-31T09:23:53;9.50;;;3.33;;
46006;SDS011;31738;50.188;8.524;2023-07-31T09:26:35;10.95;;;4.00;;
46006;SDS011;31738;50.188;8.524;2023-07-31T09:29:04;10.45;;;3.22;;
46006;SDS011;31738;50.188;8.524;2023-07-31T09:34:07;8.43;;;3.22;;
46006;SDS011;31738;50.188;8.524;2023-07-31T09:36:33;9.77;;;3.88;;
46006;SDS011;31738;50.188;8.524;2023-07-31T09:39:05;11.98;;;3.55;;
46006;SDS011;31738;50.188;8.524;2023-07-31T09:41:36;8.43;;;3.53;;
46006;SDS011;31738;50.188;8.524;2023-07-31T09:44:03;7.72;;;3.53;;
46006;SDS011;31738;50.188;8.524;2023-07-31T09:46:29;9.73;;;4.05;;
46006;SDS011;31738;50.188;8.524;2023-07-31T09:49:03;9.40;;;3.65;;
46006;SDS011;31738;50.188;8.524;2023-07-31T09:51:32;8.18;;;3.45;;
46006;SDS011;31738;50.188;8.524;2023-07-31T09:54:03;10.60;;;3.60;;
46006;SDS011;31738;50.188;8.524;2023-07-31T09:56:29;7.90;;;3.47;;
46006;SDS011;31738;50.188;8.524;2023-07-31T09:58:57;8.57;;;3.33;;
46006;SDS011;31738;50.188;8.524;2023-07-31T10:01:23;12.18;;;4.30;;
46006;SDS011;31738;50.188;8.524;2023-07-31T10:03:48;8.60;;;3.78;;
46006;SDS011;31738;50.188;8.524;2023-07-31T10:06:14;8.02;;;3.92;;
46006;SDS011;31738;50.188;8.524;2023-07-31T10:08:43;9.75;;;3.58;;
46006;SDS011;31738;50.188;8.524;2023-07-31T10:11:12;10.63;;;3.65;;
46006;SDS011;31738;50.188;8.524;2023-07-31T10:13:39;10.68;;;3.72;;
46006;SDS011;31738;50.188;8.524;2023-07-31T10:16:07;8.00;;;3.67;;
46006;SDS011;31738;50.188;8.524;2023-07-31T10:18:33;8.30;;;3.90;;
46006;SDS011;31738;50.188;8.524;2023-07-31T10:21:00;6.30;;;3.17;;
46006;SDS011;31738;50.188;8.524;2023-07-31T10:23:26;8.98;;;3.40;;
46006;SDS011;31738;50.188;8.524;2023-07-31T10:25:53;7.85;;;3.20;;
46006;SDS011;31738;50.188;8.524;2023-07-31T10:28:19;6.47;;;3.80;;
46006;SDS011;31738;50.188;8.524;2023-07-31T10:30:45;8.80;;;3.58;;
46006;SDS011;31738;50.188;8.524;2023-07-31T10:33:11;9.45;;;3.28;;
46006;SDS011;31738;50.188;8.524;2023-07-31T10:35:37;8.05;;;3.47;;
46006;SDS011;31738;50.188;8.524;2023-07-31T10:38:09;7.18;;;3.42;;
46006;SDS011;31738;50.188;8.524;2023-07-31T10:40:37;8.00;;;3.50;;
46006;SDS011;31738;50.188;8.524;2023-07-31T10:43:02;9.63;;;3.40;;
46006;SDS011;31738;50.188;8.524;2023-07-31T10:45:32;7.53;;;3.22;;
46006;SDS011;31738;50.188;8.524;2023-07-31T10:48:35;11.90;;;3.50;;
46006;SDS011;31738;50.188;8.524;2023-07-31T10:50:58;10.80;;;4.15;;
46006;SDS011;31738;50.188;8.524;2023-07-31T10:56:03;8.45;;;3.50;;
46006;SDS011;31738;50.188;8.524;2023-07-31T10:58:30;11.85;;;4.10;;
46006;SDS011;31738;50.188;8.524;2023-07-31T11:00:58;10.50;;;3.70;;
46006;SDS011;31738;50.188;8.524;2023-07-31T11:03:25;7.28;;;3.08;;
46006;SDS011;31738;50.188;8.524;2023-07-31T11:10:50;8.10;;;3.40;;
46006;SDS011;31738;50.188;8.524;2023-07-31T11:16:14;8.63;;;3.45;;
46006;SDS011;31738;50.188;8.524;2023-07-31T11:18:40;9.57;;;3.72;;
46006;SDS011;31738;50.188;8.524;2023-07-31T11:21:07;8.40;;;3.70;;
46006;SDS011;31738;50.188;8.524;2023-07-31T11:23:33;7.25;;;3.70;;
46006;SDS011;31738;50.188;8.524;2023-07-31T11:25:59;5.90;;;3.03;;
46006;SDS011;31738;50.188;8.524;2023-07-31T11:28:25;6.90;;;3.67;;
46006;SDS011;31738;50.188;8.524;2023-07-31T11:30:50;8.88;;;3.50;;
46006;SDS011;31738;50.188;8.524;2023-07-31T11:33:16;8.18;;;3.30;;
46006;SDS011;31738;50.188;8.524;2023-07-31T11:38:21;10.35;;;3.63;;
46006;SDS011;31738;50.188;8.524;2023-07-31T11:40:55;10.15;;;3.80;;
46006;SDS011;31738;50.188;8.524;2023-07-31T11:43:22;9.20;;;3.28;;
46006;SDS011;31738;50.188;8.524;2023-07-31T11:45:50;6.68;;;3.20;;
46006;SDS011;31738;50.188;8.524;2023-07-31T11:48:23;7.85;;;3.53;;
46006;SDS011;31738;50.188;8.524;2023-07-31T11:50:51;9.13;;;3.33;;
46006;SDS011;31738;50.188;8.524;2023-07-31T11:53:20;10.20;;;3.67;;
46006;SDS011;31738;50.188;8.524;2023-07-31T11:55:50;8.27;;;3.45;;
46006;SDS011;31738;50.188;8.524;2023-07-31T11:58:16;5.78;;;3.20;;
46006;SDS011;31738;50.188;8.524;2023-07-31T12:00:43;8.27;;;3.58;;
46006;SDS011;31738;50.188;8.524;2023-07-31T12:03:09;4.95;;;3.08;;
46006;SDS011;31738;50.188;8.524;2023-07-31T12:05:36;9.20;;;3.72;;
46006;SDS011;31738;50.188;8.524;2023-07-31T12:08:05;7.00;;;3.88;;
46006;SDS011;31738;50.188;8.524;2023-07-31T12:10:35;5.50;;;2.90;;
46006;SDS011;31738;50.188;8.524;2023-07-31T12:13:04;8.30;;;3.35;;
46006;SDS011;31738;50.188;8.524;2023-07-31T12:15:41;6.13;;;3.17;;
46006;SDS011;31738;50.188;8.524;2023-07-31T12:18:13;5.80;;;2.80;;
46006;SDS011;31738;50.188;8.524;2023-07-31T12:20:41;6.80;;;3.60;;
46006;SDS011;31738;50.188;8.524;2023-07-31T12:23:18;7.63;;;3.25;;
46006;SDS011;31738;50.188;8.524;2023-07-31T12:28:37;9.07;;;3.50;;
46006;SDS011;31738;50.188;8.524;2023-07-31T12:31:05;10.82;;;3.70;;
46006;SDS011;31738;50.188;8.524;2023-07-31T12:33:34;7.13;;;3.33;;
46006;SDS011;31738;50.188;8.524;2023-07-31T12:36:01;9.95;;;3.55;;
46006;SDS011;31738;50.188;8.524;2023-07-31T12:38:29;7.72;;;3.55;;
46006;SDS011;31738;50.188;8.524;2023-07-31T12:40:55;8.15;;;3.72;;
46006;SDS011;31738;50.188;8.524;2023-07-31T12:43:20;9.77;;;3.65;;
46006;SDS011;31738;50.188;8.524;2023-07-31T12:45:46;7.45;;;3.30;;
46006;SDS011;31738;50.188;8.524;2023-07-31T12:48:12;5.85;;;3.40;;
46006;SDS011;31738;50.188;8.524;2023-07-31T12:50:38;7.55;;;3.45;;
46006;SDS011;31738;50.188;8.524;2023-07-31T12:53:04;7.72;;;3.50;;
46006;SDS011;31738;50.188;8.524;2023-07-31T12:55:30;9.10;;;3.25;;
46006;SDS011;31738;50.188;8.524;2023-07-31T12:57:55;9.55;;;3.40;;
46006;SDS011;31738;50.188;8.524;2023-07-31T13:00:21;6.80;;;3.25;;
46006;SDS011;31738;50.188;8.524;2023-07-31T13:02:47;8.02;;;3.60;;
46006;SDS011;31738;50.188;8.524;2023-07-31T13:05:13;9.52;;;3.60;;
46006;SDS011;31738;50.188;8.524;2023-07-31T13:07:39;7.55;;;3.70;;
46006;SDS011;31738;50.188;8.524;2023-07-31T13:10:05;6.18;;;3.60;;
46006;SDS011;31738;50.188;8.524;2023-07-31T13:12:32;8.63;;;3.67;;
46006;SDS011;31738;50.188;8.524;2023-07-31T13:14:57;9.02;;;3.20;;
46006;SDS011;31738;50.188;8.524;2023-07-31T13:17:23;6.68;;;3.25;;
46006;SDS011;31738;50.188;8.524;2023-07-31T13:19:48;10.43;;;3.22;;
46006;SDS011;31738;50.188;8.524;2023-07-31T13:22:14;8.93;;;3.42;;
46006;SDS011;31738;50.188;8.524;2023-07-31T13:24:39;7.50;;;3.45;;
46006;SDS011;31738;50.188;8.524;2023-07-31T13:27:04;7.47;;;3.60;;
46006;SDS011;31738;50.188;8.524;2023-07-31T13:29:30;7.30;;;3.40;;
46006;SDS011;31738;50.188;8.524;2023-07-31T13:31:57;6.53;;;3.55;;
46006;SDS011;31738;50.188;8.524;2023-07-31T13:34:23;9.73;;;3.30;;
46006;SDS011;31738;50.188;8.524;2023-07-31T13:36:48;6.85;;;4.00;;
46006;SDS011;31738;50.188;8.524;2023-07-31T13:39:14;6.57;;;3.20;;
46006;SDS011;31738;50.188;8.524;2023-07-31T13:41:39;5.95;;;3.20;;
46006;SDS011;31738;50.188;8.524;2023-07-31T13:44:05;7.30;;;3.58;;
46006;SDS011;31738;50.188;8.524;2023-07-31T13:46:30;7.03;;;2.78;;
46006;SDS011;31738;50.188;8.524;2023-07-31T13:48:57;7.10;;;3.20;;
46006;SDS011;31738;50.188;8.524;2023-07-31T13:51:25;6.60;;;3.00;;
46006;SDS011;31738;50.188;8.524;2023-07-31T13:53:50;6.40;;;2.60;;
46006;SDS011;31738;50.188;8.524;2023-07-31T13:56:16;4.53;;;2.90;;
46006;SDS011;31738;50.188;8.524;2023-07-31T13:58:42;6.72;;;2.40;;
46006;SDS011;31738;50.188;8.524;2023-07-31T14:01:07;6.35;;;3.22;;
46006;SDS011;31738;50.188;8.524;2023-07-31T14:03:32;6.57;;;2.67;;
46006;SDS011;31738;50.188;8.524;2023-07-31T14:05:58;5.53;;;3.00;;
46006;SDS011;31738;50.188;8.524;2023-07-31T14:08:24;5.20;;;3.25;;
46006;SDS011;31738;50.188;8.524;2023-07-31T14:10:49;5.97;;;2.65;;
46006;SDS011;31738;50.188;8.524;2023-07-31T14:13:15;5.78;;;2.75;;
46006;SDS011;31738;50.188;8.524;2023-07-31T14:15:43;7.30;;;2.67;;
46006;SDS011;31738;50.188;8.524;2023-07-31T14:18:09;5.65;;;2.90;;
46006;SDS011;31738;50.188;8.524;2023-07-31T14:20:34;6.90;;;2.75;;
46006;SDS011;31738;50.188;8.524;2023-07-31T14:23:00;4.93;;;2.70;;
46006;SDS011;31738;50.188;8.524;2023-07-31T14:25:26;4.53;;;2.58;;
46006;SDS011;31738;50.188;8.524;2023-07-31T14:27:51;6.93;;;3.38;;
46006;SDS011;31738;50.188;8.524;2023-07-31T14:30:17;5.47;;;2.58;;
46006;SDS011;31738;50.188;8.524;2023-07-31T14:32:43;4.53;;;2.75;;
46006;SDS011;31738;50.188;8.524;2023-07-31T14:35:09;4.95;;;2.60;;
46006;SDS011;31738;50.188;8.524;2023-07-31T14:37:38;5.25;;;2.60;;
46006;SDS011;31738;50.188;8.524;2023-07-31T14:40:05;5.53;;;2.63;;
46006;SDS011;31738;50.188;8.524;2023-07-31T14:42:32;3.55;;;2.58;;
46006;SDS011;31738;50.188;8.524;2023-07-31T14:44:58;6.30;;;2.55;;
46006;SDS011;31738;50.188;8.524;2023-07-31T14:47:24;4.90;;;2.38;;
46006;SDS011;31738;50.188;8.524;2023-07-31T14:49:49;7.47;;;2.78;;
46006;SDS011;31738;50.188;8.524;2023-07-31T14:52:15;4.80;;;2.35;;
46006;SDS011;31738;50.188;8.524;2023-07-31T14:54:40;6.97;;;2.97;;
46006;SDS011;31738;50.188;8.524;2023-07-31T14:57:06;5.50;;;2.53;;
46006;SDS011;31738;50.188;8.524;2023-07-31T14:59:31;6.32;;;2.50;;
46006;SDS011;31738;50.188;8.524;2023-07-31T15:01:57;7.03;;;2.67;;
46006;SDS011;31738;50.188;8.524;2023-07-31T15:04:22;9.48;;;3.35;;
46006;SDS011;31738;50.188;8.524;2023-07-31T15:06:49;6.65;;;3.08;;
46006;SDS011;31738;50.188;8.524;2023-07-31T15:09:15;7.20;;;3.28;;